createdAt,value
2023-08-17T00:01:33.582Z,95360.50
2023-08-17T00:04:00.239Z,95357.94
2023-08-17T00:06:27.058Z,95365.03
2023-08-17T00:08:53.700Z,95365.97
2023-08-17T00:11:20.284Z,95361.81
2023-08-17T00:13:46.888Z,95366.72
2023-08-17T00:16:13.622Z,95361.16
2023-08-17T00:18:40.284Z,95365.13
2023-08-17T00:21:07.254Z,95363.50
2023-08-17T00:23:33.886Z,95359.63
2023-08-17T00:26:00.478Z,95364.97
2023-08-17T00:28:27.095Z,95366.53
2023-08-17T00:30:53.741Z,95358.13
2023-08-17T00:33:20.424Z,95364.50
2023-08-17T00:35:47.296Z,95367.75
2023-08-17T00:38:13.928Z,95366.41
2023-08-17T00:40:40.604Z,95368.69
2023-08-17T00:43:08.524Z,95358.97
2023-08-17T00:45:36.719Z,95356.72
2023-08-17T00:48:08.588Z,95354.03
2023-08-17T00:50:36.093Z,95360.56
2023-08-17T00:53:03.955Z,95368.25
2023-08-17T00:55:30.868Z,95371.41
2023-08-17T00:57:58.436Z,95360.69
2023-08-17T01:00:28.933Z,95355.56
2023-08-17T01:02:58.030Z,95351.38
2023-08-17T01:05:25.333Z,95352.88
2023-08-17T01:07:52.063Z,95347.66
2023-08-17T01:10:19.260Z,95353.47
2023-08-17T01:13:19.188Z,95354.59
2023-08-17T01:15:53.507Z,95351.19
2023-08-17T01:18:35.614Z,95347.69
2023-08-17T01:21:04.549Z,95351.19
2023-08-17T01:23:31.407Z,95345.22
2023-08-17T01:25:58.629Z,95348.88
2023-08-17T01:28:25.789Z,95353.50
2023-08-17T01:31:04.435Z,95356.00
2023-08-17T01:33:47.331Z,95354.06
2023-08-17T01:36:40.968Z,95350.09
2023-08-17T01:39:09.380Z,95352.91
2023-08-17T01:41:37.211Z,95346.03
2023-08-17T01:44:06.006Z,95342.63
2023-08-17T01:46:34.055Z,95342.31
2023-08-17T01:49:00.887Z,95338.47
2023-08-17T01:51:27.625Z,95347.41
2023-08-17T01:53:54.272Z,95338.72
2023-08-17T01:56:20.865Z,95340.56
2023-08-17T01:58:47.508Z,95332.44
2023-08-17T02:01:14.142Z,95333.94
2023-08-17T02:03:40.736Z,95341.66
2023-08-17T02:06:07.351Z,95332.22
2023-08-17T02:08:35.338Z,95330.84
2023-08-17T02:11:02.031Z,95336.75
2023-08-17T02:13:28.612Z,95330.19
2023-08-17T02:16:00.623Z,95331.38
2023-08-17T02:18:27.175Z,95325.59
2023-08-17T02:20:53.720Z,95325.81
2023-08-17T02:23:20.289Z,95326.19
2023-08-17T02:25:46.846Z,95327.34
2023-08-17T02:28:13.786Z,95327.91
2023-08-17T02:30:40.839Z,95330.38
2023-08-17T02:33:08.581Z,95336.06
2023-08-17T02:35:35.231Z,95333.97
2023-08-17T02:38:01.892Z,95325.25
2023-08-17T02:40:28.498Z,95318.34
2023-08-17T02:42:55.065Z,95319.06
2023-08-17T02:45:23.044Z,95315.78
2023-08-17T02:47:49.668Z,95320.22
2023-08-17T02:50:16.462Z,95318.47
2023-08-17T02:52:43.875Z,95320.34
2023-08-17T02:55:10.503Z,95324.88
2023-08-17T02:57:37.075Z,95323.25
2023-08-17T03:00:05.192Z,95325.94
2023-08-17T03:02:31.819Z,95334.66
2023-08-17T03:04:58.547Z,95335.03
2023-08-17T03:07:25.303Z,95331.41
2023-08-17T03:09:52.066Z,95330.03
2023-08-17T03:12:19.083Z,95335.03
2023-08-17T03:14:45.694Z,95330.28
2023-08-17T03:17:13.471Z,95333.63
2023-08-17T03:19:40.150Z,95329.44
2023-08-17T03:22:06.800Z,95343.84
2023-08-17T03:24:33.466Z,95339.44
2023-08-17T03:27:00.574Z,95332.94
2023-08-17T03:29:28.010Z,95329.66
2023-08-17T03:31:56.909Z,95332.34
2023-08-17T03:34:23.978Z,95336.56
2023-08-17T03:36:51.113Z,95333.75
2023-08-17T03:39:17.734Z,95330.59
2023-08-17T03:41:44.634Z,95327.59
2023-08-17T03:44:11.277Z,95326.41
2023-08-17T03:46:37.937Z,95321.88
2023-08-17T03:49:05.108Z,95326.75
2023-08-17T03:51:32.027Z,95329.66
2023-08-17T03:53:58.695Z,95340.00
2023-08-17T03:56:25.288Z,95348.38
2023-08-17T03:58:54.143Z,95341.91
2023-08-17T04:01:21.533Z,95336.66
2023-08-17T04:03:48.263Z,95339.09
2023-08-17T04:06:15.118Z,95336.41
2023-08-17T04:08:42.997Z,95343.41
2023-08-17T04:11:09.618Z,95342.00
2023-08-17T04:13:36.170Z,95345.00
2023-08-17T04:16:02.867Z,95348.03
2023-08-17T04:18:29.558Z,95351.19
2023-08-17T04:20:56.219Z,95355.47
2023-08-17T04:23:22.906Z,95360.97
2023-08-17T04:25:49.602Z,95357.47
2023-08-17T04:28:17.001Z,95360.97
2023-08-17T04:30:44.437Z,95357.72
2023-08-17T04:33:11.137Z,95364.78
2023-08-17T04:35:38.636Z,95362.59
2023-08-17T04:38:05.394Z,95362.00
2023-08-17T04:40:32.970Z,95366.78
2023-08-17T04:43:00.088Z,95373.75
2023-08-17T04:45:27.850Z,95371.88
2023-08-17T04:47:54.576Z,95379.44
2023-08-17T04:50:21.305Z,95381.41
2023-08-17T04:52:48.701Z,95384.78
2023-08-17T04:55:15.586Z,95379.47
2023-08-17T04:57:43.322Z,95380.28
2023-08-17T05:00:12.448Z,95384.22
2023-08-17T05:02:39.238Z,95381.91
2023-08-17T05:05:07.711Z,95382.72
2023-08-17T05:07:34.842Z,95381.09
2023-08-17T05:10:02.051Z,95382.81
2023-08-17T05:12:34.061Z,95371.19
2023-08-17T05:15:00.966Z,95374.56
2023-08-17T05:17:28.103Z,95371.88
2023-08-17T05:19:56.922Z,95375.06
2023-08-17T05:22:23.609Z,95380.06
2023-08-17T05:24:50.250Z,95384.44
2023-08-17T05:27:18.905Z,95375.47
2023-08-17T05:29:45.567Z,95385.81
2023-08-17T05:32:12.224Z,95387.88
2023-08-17T05:34:39.104Z,95392.41
2023-08-17T05:37:05.762Z,95383.16
2023-08-17T05:39:33.594Z,95380.97
2023-08-17T05:42:01.870Z,95384.09
2023-08-17T05:44:28.470Z,95390.94
2023-08-17T05:46:55.084Z,95395.66
2023-08-17T05:49:21.737Z,95389.41
2023-08-17T05:51:48.284Z,95398.47
2023-08-17T05:54:14.933Z,95397.03
2023-08-17T05:56:45.684Z,95395.50
2023-08-17T05:59:12.363Z,95387.41
2023-08-17T06:01:39.014Z,95390.53
2023-08-17T06:04:07.014Z,95394.13
2023-08-17T06:06:34.789Z,95385.81
2023-08-17T06:09:01.439Z,95382.97
2023-08-17T06:11:28.032Z,95378.34
2023-08-17T06:13:54.658Z,95386.91
2023-08-17T06:16:21.251Z,95395.94
2023-08-17T06:18:47.823Z,95395.28
2023-08-17T06:21:14.412Z,95394.03
2023-08-17T06:23:40.944Z,95396.03
2023-08-17T06:26:08.918Z,95399.09
2023-08-17T06:28:35.469Z,95397.34
2023-08-17T06:31:02.482Z,95393.72
2023-08-17T06:33:29.053Z,95396.34
2023-08-17T06:35:55.637Z,95392.44
2023-08-17T06:38:22.201Z,95392.94
2023-08-17T06:40:49.093Z,95382.84
2023-08-17T06:43:17.190Z,95389.16
2023-08-17T06:45:45.577Z,95390.59
2023-08-17T06:48:12.200Z,95380.47
2023-08-17T06:50:39.044Z,95379.16
2023-08-17T06:53:06.030Z,95376.97
2023-08-17T06:55:32.660Z,95384.69
2023-08-17T06:57:59.888Z,95382.06
2023-08-17T07:00:27.108Z,95391.81
2023-08-17T07:02:56.325Z,95393.22
2023-08-17T07:05:25.405Z,95387.97
2023-08-17T07:07:52.450Z,95391.75
2023-08-17T07:10:19.013Z,95392.56
2023-08-17T07:12:46.081Z,95394.00
2023-08-17T07:15:13.522Z,95406.72
2023-08-17T07:17:40.584Z,95399.22
2023-08-17T07:20:16.338Z,95396.09
2023-08-17T07:22:43.849Z,95401.19
2023-08-17T07:25:10.591Z,95396.13
2023-08-17T07:27:37.457Z,95398.03
2023-08-17T07:30:04.323Z,95399.94
2023-08-17T07:32:31.145Z,95395.91
2023-08-17T07:34:57.992Z,95400.00
2023-08-17T07:37:24.972Z,95405.13
2023-08-17T07:39:51.871Z,95403.50
2023-08-17T07:42:18.519Z,95402.97
2023-08-17T07:44:45.243Z,95408.09
2023-08-17T07:47:11.908Z,95405.97
2023-08-17T07:49:38.542Z,95409.19
2023-08-17T07:52:05.155Z,95406.22
2023-08-17T07:54:31.801Z,95409.19
2023-08-17T07:56:58.383Z,95402.13
2023-08-17T07:59:25.292Z,95398.63
2023-08-17T08:01:52.018Z,95398.31
2023-08-17T08:04:18.649Z,95400.75
2023-08-17T08:06:45.204Z,95395.63
2023-08-17T08:09:11.781Z,95400.72
2023-08-17T08:11:38.415Z,95394.44
2023-08-17T08:14:05.295Z,95394.44
2023-08-17T08:16:32.041Z,95395.16
2023-08-17T08:18:58.946Z,95391.28
2023-08-17T08:21:25.935Z,95397.47
2023-08-17T08:23:52.534Z,95385.47
2023-08-17T08:26:19.118Z,95388.09
2023-08-17T08:28:46.282Z,95390.25
2023-08-17T08:31:13.076Z,95388.88
2023-08-17T08:33:39.805Z,95391.88
2023-08-17T08:36:07.498Z,95383.78
2023-08-17T08:38:34.103Z,95390.06
2023-08-17T08:41:01.637Z,95392.09
2023-08-17T08:43:28.235Z,95394.16
2023-08-17T08:45:56.505Z,95391.41
2023-08-17T08:48:24.147Z,95391.25
2023-08-17T08:50:51.558Z,95387.97
2023-08-17T08:53:24.681Z,95390.53
2023-08-17T08:55:58.688Z,95385.78
2023-08-17T08:58:26.350Z,95380.88
2023-08-17T09:00:53.557Z,95387.50
2023-08-17T09:03:21.639Z,95389.94
2023-08-17T09:05:49.583Z,95387.28
2023-08-17T09:08:28.573Z,95385.25
2023-08-17T09:10:55.171Z,95388.09
2023-08-17T09:13:22.040Z,95379.66
2023-08-17T09:15:48.710Z,95380.28
2023-08-17T09:18:16.999Z,95373.91
2023-08-17T09:20:49.334Z,95376.44
2023-08-17T09:23:20.970Z,95376.75
2023-08-17T09:25:48.814Z,95378.22
2023-08-17T09:28:17.538Z,95369.19
2023-08-17T09:30:54.056Z,95368.56
2023-08-17T09:33:23.272Z,95363.63
2023-08-17T09:35:51.439Z,95365.66
2023-08-17T09:38:18.934Z,95371.16
2023-08-17T09:40:45.937Z,95369.19
2023-08-17T09:43:14.161Z,95364.50
2023-08-17T09:45:40.837Z,95366.41
2023-08-17T09:48:10.564Z,95357.50
2023-08-17T09:50:38.919Z,95362.13
2023-08-17T09:53:05.904Z,95366.81
2023-08-17T09:55:35.731Z,95357.16
2023-08-17T09:58:03.190Z,95357.06
2023-08-17T10:00:31.349Z,95355.63
2023-08-17T10:02:58.979Z,95350.91
2023-08-17T10:05:29.448Z,95350.00
2023-08-17T10:07:59.158Z,95354.03
2023-08-17T10:10:27.607Z,95350.53
2023-08-17T10:13:38.708Z,95356.47
2023-08-17T10:16:12.153Z,95349.22
2023-08-17T10:18:46.715Z,95339.50
2023-08-17T10:21:24.335Z,95348.34
2023-08-17T10:23:53.042Z,95350.13
2023-08-17T10:26:21.072Z,95353.28
2023-08-17T10:28:47.977Z,95349.34
2023-08-17T10:31:15.356Z,95350.63
2023-08-17T10:33:45.636Z,95344.47
2023-08-17T10:36:13.946Z,95350.16
2023-08-17T10:38:40.782Z,95347.28
2023-08-17T10:41:17.788Z,95348.03
2023-08-17T10:44:00.764Z,95351.22
2023-08-17T10:46:38.307Z,95347.59
2023-08-17T10:49:08.749Z,95348.69
2023-08-17T10:51:35.568Z,95337.59
2023-08-17T10:54:04.095Z,95344.09
2023-08-17T10:56:31.339Z,95347.78
2023-08-17T10:59:04.057Z,95344.56
2023-08-17T11:01:37.830Z,95340.22
2023-08-17T11:04:12.435Z,95340.28
2023-08-17T11:06:39.329Z,95334.44
2023-08-17T11:09:09.950Z,95343.19
2023-08-17T11:11:36.816Z,95337.44
2023-08-17T11:14:03.769Z,95336.63
2023-08-17T11:16:30.509Z,95336.47
2023-08-17T11:18:59.799Z,95332.41
2023-08-17T11:21:26.699Z,95334.25
2023-08-17T11:23:56.884Z,95327.09
2023-08-17T11:26:23.689Z,95325.22
2023-08-17T11:28:50.909Z,95326.59
2023-08-17T11:31:17.577Z,95321.47
2023-08-17T11:33:45.903Z,95323.78
2023-08-17T11:36:12.808Z,95319.78
2023-08-17T11:38:44.771Z,95314.91
2023-08-17T11:43:41.820Z,95308.28
2023-08-17T11:46:08.765Z,95308.91
2023-08-17T11:48:37.508Z,95299.41
2023-08-17T11:51:05.249Z,95299.88
2023-08-17T11:53:40.482Z,95300.72
2023-08-17T11:56:09.971Z,95300.28
2023-08-17T11:58:44.940Z,95286.00
2023-08-17T12:01:13.230Z,95293.28
2023-08-17T12:03:41.999Z,95287.72
2023-08-17T12:06:09.566Z,95290.19
2023-08-17T12:08:36.445Z,95286.06
2023-08-17T12:11:07.041Z,95289.94
2023-08-17T12:13:37.042Z,95287.22
2023-08-17T12:16:04.700Z,95281.72
2023-08-17T12:18:35.419Z,95289.28
2023-08-17T12:21:02.491Z,95281.22
2023-08-17T12:23:29.644Z,95278.31
2023-08-17T12:25:56.808Z,95275.13
2023-08-17T12:28:24.598Z,95273.81
2023-08-17T12:31:01.865Z,95259.91
2023-08-17T12:33:28.702Z,95256.88
2023-08-17T12:35:56.801Z,95251.34
2023-08-17T12:38:25.281Z,95241.38
2023-08-17T12:40:51.877Z,95232.66
2023-08-17T12:43:18.538Z,95243.44
2023-08-17T12:45:45.177Z,95244.44
2023-08-17T12:48:11.788Z,95247.84
2023-08-17T12:50:43.401Z,95239.13
2023-08-17T12:53:10.635Z,95240.91
2023-08-17T12:55:37.281Z,95244.59
2023-08-17T12:58:04.023Z,95238.81
2023-08-17T13:00:30.621Z,95233.16
2023-08-17T13:02:57.202Z,95235.41
2023-08-17T13:05:23.907Z,95240.41
2023-08-17T13:07:50.567Z,95237.19
2023-08-17T13:10:17.243Z,95237.19
2023-08-17T13:12:43.964Z,95235.69
2023-08-17T13:15:10.596Z,95227.34
2023-08-17T13:17:37.236Z,95226.22
2023-08-17T13:20:06.238Z,95228.75
2023-08-17T13:22:33.721Z,95231.16
2023-08-17T13:25:00.372Z,95217.22
2023-08-17T13:27:26.992Z,95218.78
2023-08-17T13:29:53.608Z,95219.00
2023-08-17T13:32:20.200Z,95216.66
2023-08-17T13:34:46.986Z,95217.00
2023-08-17T13:37:13.593Z,95220.53
2023-08-17T13:39:40.184Z,95214.03
2023-08-17T13:42:06.905Z,95215.38
2023-08-17T13:44:33.457Z,95220.31
2023-08-17T13:47:00.087Z,95226.50
2023-08-17T13:49:28.678Z,95226.91
2023-08-17T13:51:57.428Z,95216.75
2023-08-17T13:54:24.917Z,95219.44
2023-08-17T13:56:52.436Z,95218.38
2023-08-17T13:59:19.023Z,95211.25
2023-08-17T14:01:45.764Z,95213.59
2023-08-17T14:04:13.411Z,95221.03
2023-08-17T14:06:40.169Z,95208.38
2023-08-17T14:09:06.900Z,95209.19
2023-08-17T14:11:33.572Z,95206.75
2023-08-17T14:14:00.258Z,95199.63
2023-08-17T14:16:34.312Z,95201.81
2023-08-17T14:19:00.925Z,95185.50
2023-08-17T14:21:27.551Z,95185.66
2023-08-17T14:23:54.164Z,95179.31
2023-08-17T14:26:20.744Z,95172.41
2023-08-17T14:28:47.352Z,95170.13
2023-08-17T14:31:18.258Z,95167.50
2023-08-17T14:33:48.925Z,95177.25
2023-08-17T14:38:45.593Z,95175.13
2023-08-17T14:41:12.463Z,95170.44
2023-08-17T14:43:39.062Z,95173.03
2023-08-17T14:46:05.792Z,95168.84
2023-08-17T14:48:32.483Z,95168.97
2023-08-17T14:50:59.087Z,95169.50
2023-08-17T14:53:25.782Z,95177.41
2023-08-17T14:55:52.461Z,95176.56
2023-08-17T14:58:19.312Z,95175.63
2023-08-17T15:00:45.964Z,95173.81
2023-08-17T15:03:12.659Z,95176.91
2023-08-17T15:05:39.419Z,95179.41
2023-08-17T15:08:06.526Z,95183.97
2023-08-17T15:10:34.624Z,95187.50
2023-08-17T15:13:01.326Z,95191.75
2023-08-17T15:15:28.028Z,95191.59
2023-08-17T15:17:54.674Z,95197.19
2023-08-17T15:20:21.292Z,95203.81
2023-08-17T15:22:47.905Z,95204.13
2023-08-17T15:25:14.509Z,95216.63
2023-08-17T15:27:41.064Z,95219.00
2023-08-17T15:30:08.330Z,95219.13
2023-08-17T15:32:35.165Z,95219.72
2023-08-17T15:35:01.799Z,95220.94
2023-08-17T15:37:30.036Z,95223.22
2023-08-17T15:39:56.966Z,95236.13
2023-08-17T15:42:23.560Z,95229.72
2023-08-17T15:44:51.756Z,95230.69
2023-08-17T15:47:18.371Z,95223.06
2023-08-17T15:49:45.989Z,95222.84
2023-08-17T15:52:12.914Z,95220.72
2023-08-17T15:54:39.493Z,95218.63
2023-08-17T15:57:06.232Z,95216.31
2023-08-17T15:59:32.973Z,95205.00
2023-08-17T16:01:59.975Z,95206.16
2023-08-17T16:04:26.650Z,95206.34
2023-08-17T16:06:53.421Z,95211.19
2023-08-17T16:09:22.178Z,95230.03
2023-08-17T16:11:49.204Z,95242.53
2023-08-17T16:14:15.807Z,95271.72
2023-08-17T16:16:42.496Z,95290.34
2023-08-17T16:19:09.272Z,95302.00
2023-08-17T16:21:38.273Z,95290.03
2023-08-17T16:24:05.611Z,95309.56
2023-08-17T16:26:35.252Z,95319.69
2023-08-17T16:29:02.298Z,95327.88
2023-08-17T16:31:29.212Z,95347.03
2023-08-17T16:33:55.919Z,95365.09
2023-08-17T16:36:22.634Z,95392.66
2023-08-17T16:38:55.116Z,95397.03
2023-08-17T16:41:22.435Z,95407.84
2023-08-17T16:43:49.179Z,95420.28
2023-08-17T16:46:16.393Z,95422.13
2023-08-17T16:48:43.078Z,95443.44
2023-08-17T16:51:09.666Z,95467.97
2023-08-17T16:53:36.506Z,95463.19
2023-08-17T16:56:03.291Z,95478.44
2023-08-17T16:58:29.877Z,95478.78
2023-08-17T17:00:56.579Z,95490.03
2023-08-17T17:03:23.222Z,95474.38
2023-08-17T17:05:49.814Z,95454.81
2023-08-17T17:08:16.417Z,95463.97
2023-08-17T17:10:43.004Z,95470.22
2023-08-17T17:13:09.722Z,95473.13
2023-08-17T17:15:36.361Z,95483.09
2023-08-17T17:18:03.059Z,95476.59
2023-08-17T17:20:32.149Z,95475.44
2023-08-17T17:22:59.043Z,95472.78
2023-08-17T17:25:25.813Z,95471.00
2023-08-17T17:27:52.636Z,95472.28
2023-08-17T17:30:19.240Z,95477.03
2023-08-17T17:32:46.085Z,95465.72
2023-08-17T17:35:12.808Z,95468.53
2023-08-17T17:37:39.403Z,95466.66
2023-08-17T17:40:06.981Z,95459.47
2023-08-17T17:42:33.588Z,95453.38
2023-08-17T17:45:00.203Z,95458.19
2023-08-17T17:47:27.371Z,95456.91
2023-08-17T17:49:54.438Z,95442.84
2023-08-17T17:52:21.034Z,95449.47
2023-08-17T17:54:47.601Z,95445.34
2023-08-17T17:57:14.203Z,95438.56
2023-08-17T17:59:40.824Z,95439.09
2023-08-17T18:02:07.516Z,95433.56
2023-08-17T18:04:34.180Z,95449.19
2023-08-17T18:07:00.783Z,95449.66
2023-08-17T18:09:27.865Z,95465.34
2023-08-17T18:11:54.475Z,95466.59
2023-08-17T18:14:21.045Z,95478.06
2023-08-17T18:16:47.738Z,95487.69
2023-08-17T18:19:15.422Z,95481.13
2023-08-17T18:21:42.006Z,95493.91
2023-08-17T18:24:08.622Z,95492.34
2023-08-17T18:26:35.234Z,95494.44
2023-08-17T18:29:02.136Z,95500.38
2023-08-17T18:31:29.064Z,95498.69
2023-08-17T18:33:55.715Z,95509.50
2023-08-17T18:36:22.417Z,95514.25
2023-08-17T18:38:49.084Z,95529.50
2023-08-17T18:41:15.981Z,95560.22
2023-08-17T18:43:42.536Z,95587.53
2023-08-17T18:46:09.206Z,95605.44
2023-08-17T18:48:35.969Z,95605.22
2023-08-17T18:51:02.645Z,95605.34
2023-08-17T18:53:29.212Z,95588.97
2023-08-17T18:55:55.854Z,95574.53
2023-08-17T18:58:22.480Z,95564.47
2023-08-17T19:00:49.071Z,95556.59
2023-08-17T19:03:16.081Z,95573.97
2023-08-17T19:05:42.799Z,95584.38
2023-08-17T19:08:09.527Z,95580.91
2023-08-17T19:10:36.393Z,95575.88
2023-08-17T19:13:03.587Z,95581.56
2023-08-17T19:15:30.228Z,95582.97
2023-08-17T19:17:56.814Z,95571.31
2023-08-17T19:20:23.428Z,95576.00
2023-08-17T19:22:50.164Z,95561.66
2023-08-17T19:25:16.781Z,95564.34
2023-08-17T19:27:43.364Z,95559.56
2023-08-17T19:30:11.760Z,95558.66
2023-08-17T19:32:41.896Z,95557.84
2023-08-17T19:35:08.784Z,95546.91
2023-08-17T19:37:35.643Z,95555.03
2023-08-17T19:40:04.167Z,95562.66
2023-08-17T19:42:31.131Z,95558.59
2023-08-17T19:44:57.715Z,95558.38
2023-08-17T19:47:24.537Z,95560.72
2023-08-17T19:49:51.178Z,95554.41
2023-08-17T19:52:17.888Z,95553.59
2023-08-17T19:54:49.465Z,95546.50
2023-08-17T19:57:16.097Z,95543.69
2023-08-17T19:59:42.668Z,95543.09
2023-08-17T20:02:09.228Z,95549.94
2023-08-17T20:04:35.887Z,95547.41
2023-08-17T20:07:04.247Z,95538.56
2023-08-17T20:09:30.847Z,95540.19
2023-08-17T20:11:57.431Z,95534.84
2023-08-17T20:14:23.989Z,95529.72
2023-08-17T20:16:50.580Z,95527.84
2023-08-17T20:19:17.195Z,95522.72
2023-08-17T20:21:43.796Z,95529.63
2023-08-17T20:24:10.743Z,95535.88
2023-08-17T20:26:38.379Z,95527.63
2023-08-17T20:29:05.015Z,95533.13
2023-08-17T20:31:31.721Z,95527.38
2023-08-17T20:33:58.324Z,95529.63
2023-08-17T20:36:24.896Z,95523.81
2023-08-17T20:38:53.041Z,95530.66
2023-08-17T20:41:20.887Z,95534.84
2023-08-17T20:43:47.663Z,95532.31
2023-08-17T20:46:14.456Z,95540.00
2023-08-17T20:48:41.375Z,95542.31
2023-08-17T20:51:08.759Z,95547.19
2023-08-17T20:53:36.138Z,95547.19
2023-08-17T20:56:03.912Z,95546.03
2023-08-17T20:58:30.639Z,95540.94
2023-08-17T21:00:59.544Z,95544.19
2023-08-17T21:03:26.362Z,95545.34
2023-08-17T21:05:53.003Z,95544.84
2023-08-17T21:08:19.681Z,95549.34
2023-08-17T21:10:48.777Z,95556.50
2023-08-17T21:13:15.394Z,95556.88
2023-08-17T21:15:42.094Z,95568.63
2023-08-17T21:18:08.825Z,95569.81
2023-08-17T21:20:35.456Z,95575.25
2023-08-17T21:23:02.021Z,95561.63
2023-08-17T21:25:28.592Z,95560.09
2023-08-17T21:27:55.233Z,95555.22
2023-08-17T21:30:22.213Z,95538.25
2023-08-17T21:32:49.214Z,95535.22
2023-08-17T21:35:15.903Z,95528.13
2023-08-17T21:37:44.159Z,95521.38
2023-08-17T21:40:14.374Z,95519.03
2023-08-17T21:42:40.996Z,95529.72
2023-08-17T21:45:08.132Z,95536.41
2023-08-17T21:47:34.699Z,95530.22
2023-08-17T21:50:01.294Z,95528.97
2023-08-17T21:52:27.867Z,95535.81
2023-08-17T21:54:54.411Z,95527.09
2023-08-17T21:57:21.006Z,95538.88
2023-08-17T21:59:47.638Z,95540.34
2023-08-17T22:02:14.234Z,95533.09
2023-08-17T22:04:40.849Z,95540.59
2023-08-17T22:07:07.442Z,95532.81
2023-08-17T22:09:34.387Z,95527.00
2023-08-17T22:12:01.946Z,95526.97
2023-08-17T22:14:30.518Z,95535.25
2023-08-17T22:16:57.799Z,95535.63
2023-08-17T22:19:24.433Z,95534.91
2023-08-17T22:21:51.097Z,95529.19
2023-08-17T22:24:17.638Z,95522.06
2023-08-17T22:26:44.376Z,95518.84
2023-08-17T22:29:11.230Z,95522.59
2023-08-17T22:31:37.971Z,95524.97
2023-08-17T22:34:04.561Z,95524.91
2023-08-17T22:36:31.224Z,95532.13
2023-08-17T22:38:57.941Z,95540.97
2023-08-17T22:41:24.648Z,95532.47
2023-08-17T22:43:51.234Z,95535.44
2023-08-17T22:46:17.881Z,95536.72
2023-08-17T22:48:44.713Z,95535.34
2023-08-17T22:51:14.569Z,95534.03
2023-08-17T22:53:42.042Z,95548.22
2023-08-17T22:56:08.667Z,95540.41
2023-08-17T22:58:35.492Z,95535.78
2023-08-17T23:01:02.178Z,95533.69
2023-08-17T23:03:29.266Z,95522.06
2023-08-17T23:05:55.969Z,95534.50
2023-08-17T23:08:22.588Z,95531.09
2023-08-17T23:10:49.144Z,95532.66
2023-08-17T23:13:15.816Z,95526.38
2023-08-17T23:15:42.517Z,95511.56
2023-08-17T23:18:09.239Z,95515.78
2023-08-17T23:20:36.120Z,95505.06
2023-08-17T23:23:02.880Z,95504.59
2023-08-17T23:25:30.205Z,95497.34
2023-08-17T23:27:56.874Z,95490.72
2023-08-17T23:30:23.506Z,95490.63
2023-08-17T23:32:52.737Z,95486.44
2023-08-17T23:35:19.728Z,95485.97
2023-08-17T23:37:46.296Z,95494.13
2023-08-17T23:40:12.918Z,95487.00
2023-08-17T23:42:39.542Z,95480.25
2023-08-17T23:45:06.823Z,95475.47
2023-08-17T23:47:33.671Z,95467.00
2023-08-17T23:50:00.359Z,95473.16
2023-08-17T23:52:26.949Z,95472.47
2023-08-17T23:54:53.504Z,95466.28
2023-08-17T23:57:20.075Z,95473.03
2023-08-17T23:59:46.960Z,95468.25
